USRR 020700Z 27002MPS CAVOK M24/M27 Q1050 R25/810260 NOSIG RMK QFE782
QNH:(hPa/inHg/mmHg)1050 / 31.01 / 788
QFE:(hPa/inHg/mmHg)1043 / 30.79 / 782
Temperature-24
Dew Point-27
Visibility> 10000
WeatherCAVOK
Cloud Cover
Transition Height700 m./2500 ft.
Transition LevelFL30
SQUAWK